sensor_id;sensor_type;location;lat;lon;timestamp;P1;durP1;ratioP1;P2;durP2;ratioP2
74967;SDS011;63523;51.880;12.630;2022-12-05T00:00:28;106.80;;;25.47;;
74967;SDS011;63523;51.880;12.630;2022-12-05T00:02:53;95.00;;;25.60;;
74967;SDS011;63523;51.880;12.630;2022-12-05T00:05:19;97.30;;;26.27;;
74967;SDS011;63523;51.880;12.630;2022-12-05T00:07:44;97.43;;;24.90;;
74967;SDS011;63523;51.880;12.630;2022-12-05T00:10:10;102.83;;;26.67;;
74967;SDS011;63523;51.880;12.630;2022-12-05T00:12:36;96.38;;;25.35;;
74967;SDS011;63523;51.880;12.630;2022-12-05T00:15:01;90.47;;;24.37;;
74967;SDS011;63523;51.880;12.630;2022-12-05T00:17:27;99.50;;;25.73;;
74967;SDS011;63523;51.880;12.630;2022-12-05T00:19:52;93.05;;;24.63;;
74967;SDS011;63523;51.880;12.630;2022-12-05T00:22:18;88.70;;;23.87;;
74967;SDS011;63523;51.880;12.630;2022-12-05T00:24:43;94.27;;;25.10;;
74967;SDS011;63523;51.880;12.630;2022-12-05T00:27:08;101.73;;;26.00;;
74967;SDS011;63523;51.880;12.630;2022-12-05T00:29:34;87.67;;;24.03;;
74967;SDS011;63523;51.880;12.630;2022-12-05T00:32:00;93.88;;;24.95;;
74967;SDS011;63523;51.880;12.630;2022-12-05T00:34:25;86.40;;;24.37;;
74967;SDS011;63523;51.880;12.630;2022-12-05T00:36:51;95.00;;;24.92;;
74967;SDS011;63523;51.880;12.630;2022-12-05T00:39:16;84.17;;;23.67;;
74967;SDS011;63523;51.880;12.630;2022-12-05T00:41:42;85.87;;;24.13;;
74967;SDS011;63523;51.880;12.630;2022-12-05T00:44:09;93.38;;;25.05;;
74967;SDS011;63523;51.880;12.630;2022-12-05T00:46:35;94.15;;;25.70;;
74967;SDS011;63523;51.880;12.630;2022-12-05T00:49:02;98.67;;;25.57;;
74967;SDS011;63523;51.880;12.630;2022-12-05T00:51:30;88.68;;;24.23;;
74967;SDS011;63523;51.880;12.630;2022-12-05T00:53:58;96.25;;;24.90;;
74967;SDS011;63523;51.880;12.630;2022-12-05T00:56:26;87.93;;;25.27;;
74967;SDS011;63523;51.880;12.630;2022-12-05T00:58:53;90.43;;;23.52;;
74967;SDS011;63523;51.880;12.630;2022-12-05T01:01:21;89.60;;;23.77;;
74967;SDS011;63523;51.880;12.630;2022-12-05T01:03:47;91.97;;;23.80;;
74967;SDS011;63523;51.880;12.630;2022-12-05T01:06:15;84.15;;;24.30;;
74967;SDS011;63523;51.880;12.630;2022-12-05T01:08:41;86.03;;;22.90;;
74967;SDS011;63523;51.880;12.630;2022-12-05T01:11:07;93.17;;;22.73;;
74967;SDS011;63523;51.880;12.630;2022-12-05T01:13:34;87.95;;;24.05;;
74967;SDS011;63523;51.880;12.630;2022-12-05T01:15:59;82.17;;;22.53;;
74967;SDS011;63523;51.880;12.630;2022-12-05T01:18:25;80.68;;;22.15;;
74967;SDS011;63523;51.880;12.630;2022-12-05T01:20:51;89.82;;;24.10;;
74967;SDS011;63523;51.880;12.630;2022-12-05T01:23:18;84.43;;;23.23;;
74967;SDS011;63523;51.880;12.630;2022-12-05T01:25:45;88.82;;;22.20;;
74967;SDS011;63523;51.880;12.630;2022-12-05T01:28:12;81.53;;;22.23;;
74967;SDS011;63523;51.880;12.630;2022-12-05T01:30:38;83.95;;;22.63;;
74967;SDS011;63523;51.880;12.630;2022-12-05T01:33:05;75.80;;;21.55;;
74967;SDS011;63523;51.880;12.630;2022-12-05T01:35:32;75.65;;;22.13;;
74967;SDS011;63523;51.880;12.630;2022-12-05T01:37:58;76.10;;;21.35;;
74967;SDS011;63523;51.880;12.630;2022-12-05T01:40:24;75.00;;;21.00;;
74967;SDS011;63523;51.880;12.630;2022-12-05T01:42:49;73.10;;;19.93;;
74967;SDS011;63523;51.880;12.630;2022-12-05T01:45:16;69.45;;;19.98;;
74967;SDS011;63523;51.880;12.630;2022-12-05T01:47:46;70.60;;;20.67;;
74967;SDS011;63523;51.880;12.630;2022-12-05T01:50:12;74.78;;;21.35;;
74967;SDS011;63523;51.880;12.630;2022-12-05T01:52:37;71.37;;;21.07;;
74967;SDS011;63523;51.880;12.630;2022-12-05T01:55:06;71.45;;;19.88;;
74967;SDS011;63523;51.880;12.630;2022-12-05T01:57:37;76.68;;;21.60;;
74967;SDS011;63523;51.880;12.630;2022-12-05T02:00:07;69.95;;;20.13;;
74967;SDS011;63523;51.880;12.630;2022-12-05T02:02:35;70.73;;;20.67;;
74967;SDS011;63523;51.880;12.630;2022-12-05T02:05:05;71.70;;;20.63;;
74967;SDS011;63523;51.880;12.630;2022-12-05T02:07:35;64.60;;;19.15;;
74967;SDS011;63523;51.880;12.630;2022-12-05T02:10:03;66.15;;;20.42;;
74967;SDS011;63523;51.880;12.630;2022-12-05T02:12:30;76.57;;;21.60;;
74967;SDS011;63523;51.880;12.630;2022-12-05T02:28:34;58.75;;;18.70;;
74967;SDS011;63523;51.880;12.630;2022-12-05T02:31:12;69.70;;;19.80;;
74967;SDS011;63523;51.880;12.630;2022-12-05T02:33:58;74.43;;;20.15;;
74967;SDS011;63523;51.880;12.630;2022-12-05T02:36:35;69.80;;;19.58;;
74967;SDS011;63523;51.880;12.630;2022-12-05T02:39:23;69.43;;;19.63;;
74967;SDS011;63523;51.880;12.630;2022-12-05T02:42:09;74.50;;;19.92;;
74967;SDS011;63523;51.880;12.630;2022-12-05T02:44:41;70.40;;;20.07;;
74967;SDS011;63523;51.880;12.630;2022-12-05T02:47:28;73.93;;;19.83;;
74967;SDS011;63523;51.880;12.630;2022-12-05T02:49:57;68.95;;;19.65;;
74967;SDS011;63523;51.880;12.630;2022-12-05T02:52:23;74.85;;;20.92;;
74967;SDS011;63523;51.880;12.630;2022-12-05T02:54:49;81.93;;;22.23;;
74967;SDS011;63523;51.880;12.630;2022-12-05T02:57:17;73.70;;;19.67;;
74967;SDS011;63523;51.880;12.630;2022-12-05T02:59:45;75.15;;;21.83;;
74967;SDS011;63523;51.880;12.630;2022-12-05T03:02:26;67.75;;;19.85;;
74967;SDS011;63523;51.880;12.630;2022-12-05T03:05:43;77.72;;;21.98;;
74967;SDS011;63523;51.880;12.630;2022-12-05T03:08:00;75.30;;;21.20;;
74967;SDS011;63523;51.880;12.630;2022-12-05T03:10:28;74.22;;;21.63;;
74967;SDS011;63523;51.880;12.630;2022-12-05T03:12:57;77.05;;;20.90;;
74967;SDS011;63523;51.880;12.630;2022-12-05T03:15:31;77.95;;;21.38;;
74967;SDS011;63523;51.880;12.630;2022-12-05T03:18:07;74.63;;;20.50;;
74967;SDS011;63523;51.880;12.630;2022-12-05T03:20:40;78.03;;;21.20;;
74967;SDS011;63523;51.880;12.630;2022-12-05T03:23:12;73.57;;;21.25;;
74967;SDS011;63523;51.880;12.630;2022-12-05T03:30:46;72.40;;;20.73;;
74967;SDS011;63523;51.880;12.630;2022-12-05T03:33:16;69.07;;;20.93;;
74967;SDS011;63523;51.880;12.630;2022-12-05T03:38:32;71.65;;;20.90;;
74967;SDS011;63523;51.880;12.630;2022-12-05T03:46:21;56.40;;;17.27;;
74967;SDS011;63523;51.880;12.630;2022-12-05T03:48:52;60.28;;;18.02;;
74967;SDS011;63523;51.880;12.630;2022-12-05T03:51:51;57.25;;;17.38;;
74967;SDS011;63523;51.880;12.630;2022-12-05T03:54:31;54.80;;;17.92;;
74967;SDS011;63523;51.880;12.630;2022-12-05T03:57:02;53.83;;;18.42;;
74967;SDS011;63523;51.880;12.630;2022-12-05T04:02:24;59.38;;;17.90;;
74967;SDS011;63523;51.880;12.630;2022-12-05T04:05:06;56.05;;;19.15;;
74967;SDS011;63523;51.880;12.630;2022-12-05T04:07:37;66.65;;;18.10;;
74967;SDS011;63523;51.880;12.630;2022-12-05T04:10:05;55.42;;;17.58;;
74967;SDS011;63523;51.880;12.630;2022-12-05T04:12:36;58.33;;;17.73;;
74967;SDS011;63523;51.880;12.630;2022-12-05T04:15:09;55.33;;;18.33;;
74967;SDS011;63523;51.880;12.630;2022-12-05T04:17:39;59.75;;;18.48;;
74967;SDS011;63523;51.880;12.630;2022-12-05T04:20:14;60.45;;;18.38;;
74967;SDS011;63523;51.880;12.630;2022-12-05T04:23:02;66.30;;;19.23;;
74967;SDS011;63523;51.880;12.630;2022-12-05T04:25:29;54.73;;;17.83;;
74967;SDS011;63523;51.880;12.630;2022-12-05T04:30:57;61.75;;;18.40;;
74967;SDS011;63523;51.880;12.630;2022-12-05T04:33:34;57.10;;;18.98;;
74967;SDS011;63523;51.880;12.630;2022-12-05T04:41:44;58.17;;;18.65;;
74967;SDS011;63523;51.880;12.630;2022-12-05T04:44:16;59.65;;;19.50;;
74967;SDS011;63523;51.880;12.630;2022-12-05T04:46:45;64.00;;;18.95;;
74967;SDS011;63523;51.880;12.630;2022-12-05T04:49:15;60.03;;;19.13;;
74967;SDS011;63523;51.880;12.630;2022-12-05T04:51:44;66.27;;;19.93;;
74967;SDS011;63523;51.880;12.630;2022-12-05T04:54:14;62.03;;;19.25;;
74967;SDS011;63523;51.880;12.630;2022-12-05T04:56:43;59.53;;;19.27;;
74967;SDS011;63523;51.880;12.630;2022-12-05T04:59:12;61.80;;;19.70;;
74967;SDS011;63523;51.880;12.630;2022-12-05T05:01:39;67.97;;;20.03;;
74967;SDS011;63523;51.880;12.630;2022-12-05T05:04:13;59.55;;;19.17;;
74967;SDS011;63523;51.880;12.630;2022-12-05T05:06:43;60.75;;;18.60;;
74967;SDS011;63523;51.880;12.630;2022-12-05T05:09:09;57.33;;;18.20;;
74967;SDS011;63523;51.880;12.630;2022-12-05T05:11:35;57.58;;;18.90;;
74967;SDS011;63523;51.880;12.630;2022-12-05T05:14:02;59.00;;;19.75;;
74967;SDS011;63523;51.880;12.630;2022-12-05T05:16:35;57.30;;;18.07;;
74967;SDS011;63523;51.880;12.630;2022-12-05T05:19:03;59.03;;;18.88;;
74967;SDS011;63523;51.880;12.630;2022-12-05T05:21:36;61.88;;;18.38;;
74967;SDS011;63523;51.880;12.630;2022-12-05T05:24:04;56.53;;;18.67;;
74967;SDS011;63523;51.880;12.630;2022-12-05T05:26:31;58.45;;;18.80;;
74967;SDS011;63523;51.880;12.630;2022-12-05T05:28:58;58.27;;;18.57;;
74967;SDS011;63523;51.880;12.630;2022-12-05T05:31:24;56.03;;;17.95;;
74967;SDS011;63523;51.880;12.630;2022-12-05T05:33:50;57.57;;;18.90;;
74967;SDS011;63523;51.880;12.630;2022-12-05T05:36:18;63.17;;;18.63;;
74967;SDS011;63523;51.880;12.630;2022-12-05T05:38:46;55.50;;;17.75;;
74967;SDS011;63523;51.880;12.630;2022-12-05T05:41:14;57.67;;;18.50;;
74967;SDS011;63523;51.880;12.630;2022-12-05T05:43:45;58.38;;;18.42;;
74967;SDS011;63523;51.880;12.630;2022-12-05T05:46:11;53.67;;;17.33;;
74967;SDS011;63523;51.880;12.630;2022-12-05T05:48:37;49.40;;;16.23;;
74967;SDS011;63523;51.880;12.630;2022-12-05T05:51:04;52.88;;;17.52;;
74967;SDS011;63523;51.880;12.630;2022-12-05T05:53:31;56.20;;;18.17;;
74967;SDS011;63523;51.880;12.630;2022-12-05T05:56:01;55.92;;;18.85;;
74967;SDS011;63523;51.880;12.630;2022-12-05T05:58:28;49.13;;;17.00;;
74967;SDS011;63523;51.880;12.630;2022-12-05T06:00:53;49.15;;;18.05;;
74967;SDS011;63523;51.880;12.630;2022-12-05T06:03:19;51.30;;;16.97;;
74967;SDS011;63523;51.880;12.630;2022-12-05T06:05:44;51.50;;;17.13;;
74967;SDS011;63523;51.880;12.630;2022-12-05T06:08:19;54.13;;;17.52;;
74967;SDS011;63523;51.880;12.630;2022-12-05T06:10:45;44.60;;;15.50;;
74967;SDS011;63523;51.880;12.630;2022-12-05T06:13:10;44.83;;;15.63;;
74967;SDS011;63523;51.880;12.630;2022-12-05T06:15:36;44.77;;;15.80;;
74967;SDS011;63523;51.880;12.630;2022-12-05T06:18:01;48.87;;;17.30;;
74967;SDS011;63523;51.880;12.630;2022-12-05T06:20:27;45.13;;;15.80;;
74967;SDS011;63523;51.880;12.630;2022-12-05T06:22:52;48.50;;;15.70;;
74967;SDS011;63523;51.880;12.630;2022-12-05T06:25:18;42.80;;;14.60;;
74967;SDS011;63523;51.880;12.630;2022-12-05T06:27:43;47.67;;;16.23;;
74967;SDS011;63523;51.880;12.630;2022-12-05T06:30:09;45.33;;;16.80;;
74967;SDS011;63523;51.880;12.630;2022-12-05T06:32:35;50.70;;;16.45;;
74967;SDS011;63523;51.880;12.630;2022-12-05T06:35:00;44.60;;;15.70;;
74967;SDS011;63523;51.880;12.630;2022-12-05T06:37:34;43.83;;;15.60;;
74967;SDS011;63523;51.880;12.630;2022-12-05T06:40:02;39.08;;;14.30;;
74967;SDS011;63523;51.880;12.630;2022-12-05T06:42:30;44.77;;;15.20;;
74967;SDS011;63523;51.880;12.630;2022-12-05T06:44:55;45.85;;;15.88;;
74967;SDS011;63523;51.880;12.630;2022-12-05T06:47:21;42.00;;;15.87;;
74967;SDS011;63523;51.880;12.630;2022-12-05T06:49:46;45.20;;;15.85;;
74967;SDS011;63523;51.880;12.630;2022-12-05T06:52:12;43.20;;;14.73;;
74967;SDS011;63523;51.880;12.630;2022-12-05T06:54:37;42.30;;;14.13;;
74967;SDS011;63523;51.880;12.630;2022-12-05T06:57:02;43.10;;;14.93;;
74967;SDS011;63523;51.880;12.630;2022-12-05T06:59:28;40.70;;;13.90;;
74967;SDS011;63523;51.880;12.630;2022-12-05T07:01:53;39.57;;;14.10;;
74967;SDS011;63523;51.880;12.630;2022-12-05T07:04:20;38.40;;;13.50;;
74967;SDS011;63523;51.880;12.630;2022-12-05T07:06:49;39.55;;;14.30;;
74967;SDS011;63523;51.880;12.630;2022-12-05T07:09:17;38.03;;;14.30;;
74967;SDS011;63523;51.880;12.630;2022-12-05T07:11:48;38.70;;;13.20;;
74967;SDS011;63523;51.880;12.630;2022-12-05T07:14:14;41.05;;;14.27;;
74967;SDS011;63523;51.880;12.630;2022-12-05T07:16:40;39.03;;;13.70;;
74967;SDS011;63523;51.880;12.630;2022-12-05T07:19:06;40.27;;;14.93;;
74967;SDS011;63523;51.880;12.630;2022-12-05T07:21:31;37.28;;;13.52;;
74967;SDS011;63523;51.880;12.630;2022-12-05T07:23:57;32.17;;;12.73;;
74967;SDS011;63523;51.880;12.630;2022-12-05T07:26:23;31.92;;;11.75;;
74967;SDS011;63523;51.880;12.630;2022-12-05T07:28:49;34.17;;;12.27;;
74967;SDS011;63523;51.880;12.630;2022-12-05T07:31:16;34.63;;;13.50;;
74967;SDS011;63523;51.880;12.630;2022-12-05T07:33:44;34.47;;;13.45;;
74967;SDS011;63523;51.880;12.630;2022-12-05T07:36:14;38.75;;;14.10;;
74967;SDS011;63523;51.880;12.630;2022-12-05T07:38:41;36.03;;;12.93;;
74967;SDS011;63523;51.880;12.630;2022-12-05T07:41:09;31.65;;;12.15;;
74967;SDS011;63523;51.880;12.630;2022-12-05T07:43:38;36.75;;;13.80;;
74967;SDS011;63523;51.880;12.630;2022-12-05T07:46:04;36.03;;;13.10;;
74967;SDS011;63523;51.880;12.630;2022-12-05T07:48:31;39.00;;;14.25;;
74967;SDS011;63523;51.880;12.630;2022-12-05T07:51:00;40.38;;;15.00;;
74967;SDS011;63523;51.880;12.630;2022-12-05T07:53:27;35.22;;;13.48;;
74967;SDS011;63523;51.880;12.630;2022-12-05T07:55:53;35.58;;;13.68;;
74967;SDS011;63523;51.880;12.630;2022-12-05T07:58:19;35.40;;;14.00;;
74967;SDS011;63523;51.880;12.630;2022-12-05T08:00:44;40.10;;;13.83;;
74967;SDS011;63523;51.880;12.630;2022-12-05T08:03:09;41.87;;;15.03;;
74967;SDS011;63523;51.880;12.630;2022-12-05T08:05:35;36.42;;;14.32;;
74967;SDS011;63523;51.880;12.630;2022-12-05T08:08:01;36.77;;;13.10;;
74967;SDS011;63523;51.880;12.630;2022-12-05T08:10:27;39.05;;;15.38;;
74967;SDS011;63523;51.880;12.630;2022-12-05T08:12:52;39.87;;;14.20;;
74967;SDS011;63523;51.880;12.630;2022-12-05T08:15:18;42.30;;;14.77;;
74967;SDS011;63523;51.880;12.630;2022-12-05T08:17:43;42.93;;;14.73;;
74967;SDS011;63523;51.880;12.630;2022-12-05T08:20:09;41.07;;;15.70;;
74967;SDS011;63523;51.880;12.630;2022-12-05T08:22:35;40.38;;;14.80;;
74967;SDS011;63523;51.880;12.630;2022-12-05T08:25:00;39.67;;;14.97;;
74967;SDS011;63523;51.880;12.630;2022-12-05T08:27:25;41.20;;;14.50;;
74967;SDS011;63523;51.880;12.630;2022-12-05T08:29:52;42.90;;;15.67;;
74967;SDS011;63523;51.880;12.630;2022-12-05T08:32:18;46.55;;;15.45;;
74967;SDS011;63523;51.880;12.630;2022-12-05T08:34:44;45.05;;;14.85;;
74967;SDS011;63523;51.880;12.630;2022-12-05T08:37:09;44.37;;;15.63;;
74967;SDS011;63523;51.880;12.630;2022-12-05T08:39:35;44.37;;;15.40;;
74967;SDS011;63523;51.880;12.630;2022-12-05T08:42:02;40.33;;;14.57;;
74967;SDS011;63523;51.880;12.630;2022-12-05T08:44:27;43.15;;;15.18;;
74967;SDS011;63523;51.880;12.630;2022-12-05T08:46:53;48.60;;;15.87;;
74967;SDS011;63523;51.880;12.630;2022-12-05T08:49:18;43.83;;;15.33;;
74967;SDS011;63523;51.880;12.630;2022-12-05T08:51:44;45.90;;;15.57;;
74967;SDS011;63523;51.880;12.630;2022-12-05T08:54:09;49.57;;;17.03;;
74967;SDS011;63523;51.880;12.630;2022-12-05T08:56:35;50.37;;;15.90;;
74967;SDS011;63523;51.880;12.630;2022-12-05T08:59:02;49.83;;;16.05;;
74967;SDS011;63523;51.880;12.630;2022-12-05T09:01:28;53.08;;;15.50;;
74967;SDS011;63523;51.880;12.630;2022-12-05T09:03:56;43.75;;;14.75;;
74967;SDS011;63523;51.880;12.630;2022-12-05T09:06:24;46.97;;;15.15;;
74967;SDS011;63523;51.880;12.630;2022-12-05T09:08:55;44.97;;;15.13;;
74967;SDS011;63523;51.880;12.630;2022-12-05T09:11:23;49.92;;;16.55;;
74967;SDS011;63523;51.880;12.630;2022-12-05T09:13:52;51.58;;;16.48;;
74967;SDS011;63523;51.880;12.630;2022-12-05T09:16:20;48.63;;;14.80;;
74967;SDS011;63523;51.880;12.630;2022-12-05T09:18:47;45.22;;;15.57;;
74967;SDS011;63523;51.880;12.630;2022-12-05T09:21:15;48.97;;;16.13;;
74967;SDS011;63523;51.880;12.630;2022-12-05T09:23:42;49.60;;;16.33;;
74967;SDS011;63523;51.880;12.630;2022-12-05T09:26:09;47.88;;;17.05;;
74967;SDS011;63523;51.880;12.630;2022-12-05T09:28:36;45.95;;;16.25;;
74967;SDS011;63523;51.880;12.630;2022-12-05T09:31:03;52.58;;;16.98;;
74967;SDS011;63523;51.880;12.630;2022-12-05T09:33:31;48.00;;;17.07;;
74967;SDS011;63523;51.880;12.630;2022-12-05T09:36:05;48.35;;;16.38;;
74967;SDS011;63523;51.880;12.630;2022-12-05T09:38:33;49.95;;;16.88;;
74967;SDS011;63523;51.880;12.630;2022-12-05T09:43:36;44.67;;;15.87;;
74967;SDS011;63523;51.880;12.630;2022-12-05T09:46:28;45.45;;;16.35;;
74967;SDS011;63523;51.880;12.630;2022-12-05T09:49:09;46.85;;;17.30;;
74967;SDS011;63523;51.880;12.630;2022-12-05T09:51:37;46.90;;;16.35;;
74967;SDS011;63523;51.880;12.630;2022-12-05T09:54:07;47.63;;;16.60;;
74967;SDS011;63523;51.880;12.630;2022-12-05T09:56:35;43.77;;;15.27;;
74967;SDS011;63523;51.880;12.630;2022-12-05T09:59:02;49.63;;;17.02;;
74967;SDS011;63523;51.880;12.630;2022-12-05T10:04:04;49.28;;;17.25;;
74967;SDS011;63523;51.880;12.630;2022-12-05T10:07:13;52.63;;;16.80;;
74967;SDS011;63523;51.880;12.630;2022-12-05T10:18:39;56.17;;;19.70;;
74967;SDS011;63523;51.880;12.630;2022-12-05T10:21:10;59.05;;;20.13;;
74967;SDS011;63523;51.880;12.630;2022-12-05T10:23:47;50.03;;;18.57;;
74967;SDS011;63523;51.880;12.630;2022-12-05T10:26:20;48.63;;;16.67;;
74967;SDS011;63523;51.880;12.630;2022-12-05T10:28:51;54.28;;;18.98;;
74967;SDS011;63523;51.880;12.630;2022-12-05T10:31:26;53.90;;;16.60;;
74967;SDS011;63523;51.880;12.630;2022-12-05T10:33:56;56.33;;;18.60;;
74967;SDS011;63523;51.880;12.630;2022-12-05T10:36:27;53.37;;;17.97;;
74967;SDS011;63523;51.880;12.630;2022-12-05T10:38:52;57.17;;;18.90;;
74967;SDS011;63523;51.880;12.630;2022-12-05T10:41:18;55.63;;;19.60;;
74967;SDS011;63523;51.880;12.630;2022-12-05T10:43:44;49.08;;;17.88;;
74967;SDS011;63523;51.880;12.630;2022-12-05T10:46:14;59.90;;;19.17;;
74967;SDS011;63523;51.880;12.630;2022-12-05T10:48:40;57.63;;;19.35;;
74967;SDS011;63523;51.880;12.630;2022-12-05T10:51:10;58.53;;;20.60;;
74967;SDS011;63523;51.880;12.630;2022-12-05T10:53:39;51.83;;;18.13;;
74967;SDS011;63523;51.880;12.630;2022-12-05T10:59:05;64.07;;;21.00;;
74967;SDS011;63523;51.880;12.630;2022-12-05T11:01:32;56.08;;;18.52;;
74967;SDS011;63523;51.880;12.630;2022-12-05T11:04:00;52.73;;;18.50;;
74967;SDS011;63523;51.880;12.630;2022-12-05T11:06:34;62.65;;;19.88;;
74967;SDS011;63523;51.880;12.630;2022-12-05T11:09:16;57.75;;;19.67;;
74967;SDS011;63523;51.880;12.630;2022-12-05T11:14:30;57.35;;;18.80;;
74967;SDS011;63523;51.880;12.630;2022-12-05T11:16:58;56.90;;;20.15;;
74967;SDS011;63523;51.880;12.630;2022-12-05T11:22:01;50.75;;;17.38;;
74967;SDS011;63523;51.880;12.630;2022-12-05T11:24:28;47.97;;;17.97;;
74967;SDS011;63523;51.880;12.630;2022-12-05T11:29:55;50.90;;;17.63;;
74967;SDS011;63523;51.880;12.630;2022-12-05T11:32:37;48.50;;;17.50;;
74967;SDS011;63523;51.880;12.630;2022-12-05T11:37:45;58.65;;;20.00;;
74967;SDS011;63523;51.880;12.630;2022-12-05T11:40:34;58.63;;;19.60;;
74967;SDS011;63523;51.880;12.630;2022-12-05T11:46:26;62.55;;;19.30;;
74967;SDS011;63523;51.880;12.630;2022-12-05T11:55:08;50.60;;;17.35;;
74967;SDS011;63523;51.880;12.630;2022-12-05T12:05:37;50.92;;;18.27;;
74967;SDS011;63523;51.880;12.630;2022-12-05T12:19:09;51.55;;;18.15;;
74967;SDS011;63523;51.880;12.630;2022-12-05T12:29:56;48.07;;;17.60;;
74967;SDS011;63523;51.880;12.630;2022-12-05T12:38:30;50.65;;;17.45;;
74967;SDS011;63523;51.880;12.630;2022-12-05T12:47:07;51.42;;;18.88;;
74967;SDS011;63523;51.880;12.630;2022-12-05T12:49:47;46.45;;;17.90;;
74967;SDS011;63523;51.880;12.630;2022-12-05T13:09:37;33.90;;;14.20;;
74967;SDS011;63523;51.880;12.630;2022-12-05T13:12:09;36.07;;;13.60;;
74967;SDS011;63523;51.880;12.630;2022-12-05T13:14:37;38.53;;;15.50;;
74967;SDS011;63523;51.880;12.630;2022-12-05T13:17:15;36.67;;;13.60;;
74967;SDS011;63523;51.880;12.630;2022-12-05T13:19:51;38.72;;;14.55;;
74967;SDS011;63523;51.880;12.630;2022-12-05T13:22:21;35.05;;;14.45;;
74967;SDS011;63523;51.880;12.630;2022-12-05T13:24:52;33.77;;;14.30;;
74967;SDS011;63523;51.880;12.630;2022-12-05T13:27:22;37.75;;;14.88;;
74967;SDS011;63523;51.880;12.630;2022-12-05T13:29:53;40.72;;;14.77;;
74967;SDS011;63523;51.880;12.630;2022-12-05T13:35:38;41.33;;;16.02;;
74967;SDS011;63523;51.880;12.630;2022-12-05T13:38:31;55.87;;;19.07;;
74967;SDS011;63523;51.880;12.630;2022-12-05T13:41:18;35.55;;;13.63;;
74967;SDS011;63523;51.880;12.630;2022-12-05T13:44:02;40.40;;;14.95;;
74967;SDS011;63523;51.880;12.630;2022-12-05T13:46:38;50.03;;;17.75;;
74967;SDS011;63523;51.880;12.630;2022-12-05T13:49:17;39.97;;;15.63;;
74967;SDS011;63523;51.880;12.630;2022-12-05T13:51:50;35.07;;;14.17;;
74967;SDS011;63523;51.880;12.630;2022-12-05T13:54:17;38.17;;;15.20;;
74967;SDS011;63523;51.880;12.630;2022-12-05T14:07:39;32.72;;;11.52;;
74967;SDS011;63523;51.880;12.630;2022-12-05T14:10:05;35.85;;;12.30;;
74967;SDS011;63523;51.880;12.630;2022-12-05T14:15:27;29.37;;;10.73;;
74967;SDS011;63523;51.880;12.630;2022-12-05T14:17:58;33.20;;;12.35;;
74967;SDS011;63523;51.880;12.630;2022-12-05T14:23:37;33.33;;;12.40;;
74967;SDS011;63523;51.880;12.630;2022-12-05T14:30:22;33.33;;;10.70;;
74967;SDS011;63523;51.880;12.630;2022-12-05T14:32:38;30.70;;;9.52;;
74967;SDS011;63523;51.880;12.630;2022-12-05T14:35:10;24.83;;;9.13;;
74967;SDS011;63523;51.880;12.630;2022-12-05T14:40:27;26.45;;;9.82;;
74967;SDS011;63523;51.880;12.630;2022-12-05T14:45:25;20.80;;;8.57;;
74967;SDS011;63523;51.880;12.630;2022-12-05T14:47:58;24.02;;;8.63;;
74967;SDS011;63523;51.880;12.630;2022-12-05T14:50:49;20.30;;;7.95;;
74967;SDS011;63523;51.880;12.630;2022-12-05T14:55:43;18.73;;;7.93;;
74967;SDS011;63523;51.880;12.630;2022-12-05T14:58:20;19.05;;;7.38;;
74967;SDS011;63523;51.880;12.630;2022-12-05T15:01:15;17.60;;;7.03;;
74967;SDS011;63523;51.880;12.630;2022-12-05T15:03:57;19.65;;;7.22;;
74967;SDS011;63523;51.880;12.630;2022-12-05T15:12:21;18.55;;;6.90;;
74967;SDS011;63523;51.880;12.630;2022-12-05T15:20:36;25.48;;;8.90;;
74967;SDS011;63523;51.880;12.630;2022-12-05T15:26:49;21.17;;;8.25;;
74967;SDS011;63523;51.880;12.630;2022-12-05T15:31:57;17.02;;;6.88;;
74967;SDS011;63523;51.880;12.630;2022-12-05T15:39:55;19.80;;;6.65;;
74967;SDS011;63523;51.880;12.630;2022-12-05T15:42:22;19.67;;;7.50;;
74967;SDS011;63523;51.880;12.630;2022-12-05T15:44:53;18.45;;;6.60;;
74967;SDS011;63523;51.880;12.630;2022-12-05T15:47:36;19.73;;;7.40;;
74967;SDS011;63523;51.880;12.630;2022-12-05T15:50:03;17.20;;;7.20;;
74967;SDS011;63523;51.880;12.630;2022-12-05T15:52:33;18.92;;;6.63;;
74967;SDS011;63523;51.880;12.630;2022-12-05T16:00:33;23.25;;;9.18;;
74967;SDS011;63523;51.880;12.630;2022-12-05T16:03:06;22.07;;;9.33;;
74967;SDS011;63523;51.880;12.630;2022-12-05T16:05:52;23.15;;;9.40;;
74967;SDS011;63523;51.880;12.630;2022-12-05T16:08:22;28.65;;;10.73;;
74967;SDS011;63523;51.880;12.630;2022-12-05T16:10:49;32.47;;;10.85;;
74967;SDS011;63523;51.880;12.630;2022-12-05T16:13:15;35.88;;;11.32;;
74967;SDS011;63523;51.880;12.630;2022-12-05T16:15:45;48.93;;;15.57;;
74967;SDS011;63523;51.880;12.630;2022-12-05T16:18:22;28.95;;;10.48;;
74967;SDS011;63523;51.880;12.630;2022-12-05T16:20:51;23.60;;;9.52;;
74967;SDS011;63523;51.880;12.630;2022-12-05T16:23:22;18.35;;;7.50;;
74967;SDS011;63523;51.880;12.630;2022-12-05T16:26:08;20.07;;;8.10;;
74967;SDS011;63523;51.880;12.630;2022-12-05T16:28:37;21.40;;;8.25;;
74967;SDS011;63523;51.880;12.630;2022-12-05T16:31:03;20.10;;;7.93;;
74967;SDS011;63523;51.880;12.630;2022-12-05T16:33:30;17.07;;;6.53;;
74967;SDS011;63523;51.880;12.630;2022-12-05T16:36:06;22.33;;;9.25;;
74967;SDS011;63523;51.880;12.630;2022-12-05T16:38:33;20.30;;;7.50;;
74967;SDS011;63523;51.880;12.630;2022-12-05T16:41:03;25.38;;;10.27;;
74967;SDS011;63523;51.880;12.630;2022-12-05T16:45:57;39.30;;;14.50;;
74967;SDS011;63523;51.880;12.630;2022-12-05T16:48:31;24.25;;;9.75;;
74967;SDS011;63523;51.880;12.630;2022-12-05T16:53:56;18.15;;;7.30;;
74967;SDS011;63523;51.880;12.630;2022-12-05T16:56:23;20.38;;;9.40;;
74967;SDS011;63523;51.880;12.630;2022-12-05T16:58:50;22.17;;;9.57;;
74967;SDS011;63523;51.880;12.630;2022-12-05T17:01:25;22.47;;;9.60;;
74967;SDS011;63523;51.880;12.630;2022-12-05T17:03:51;22.38;;;9.65;;
74967;SDS011;63523;51.880;12.630;2022-12-05T17:06:18;24.38;;;9.43;;
74967;SDS011;63523;51.880;12.630;2022-12-05T17:08:45;20.40;;;9.47;;
74967;SDS011;63523;51.880;12.630;2022-12-05T17:11:15;17.67;;;7.68;;
74967;SDS011;63523;51.880;12.630;2022-12-05T17:13:43;17.17;;;7.40;;
74967;SDS011;63523;51.880;12.630;2022-12-05T17:16:12;16.65;;;7.50;;
74967;SDS011;63523;51.880;12.630;2022-12-05T17:18:42;16.95;;;6.80;;
74967;SDS011;63523;51.880;12.630;2022-12-05T17:21:28;15.80;;;6.73;;
74967;SDS011;63523;51.880;12.630;2022-12-05T17:23:55;17.85;;;7.10;;
74967;SDS011;63523;51.880;12.630;2022-12-05T17:26:21;16.95;;;7.00;;
74967;SDS011;63523;51.880;12.630;2022-12-05T17:28:47;15.77;;;7.37;;
74967;SDS011;63523;51.880;12.630;2022-12-05T17:31:14;15.55;;;7.43;;
74967;SDS011;63523;51.880;12.630;2022-12-05T17:33:41;15.85;;;7.13;;
74967;SDS011;63523;51.880;12.630;2022-12-05T17:36:07;16.43;;;7.43;;
74967;SDS011;63523;51.880;12.630;2022-12-05T17:38:33;17.20;;;7.57;;
74967;SDS011;63523;51.880;12.630;2022-12-05T17:40:59;17.33;;;7.57;;
74967;SDS011;63523;51.880;12.630;2022-12-05T17:43:24;18.70;;;7.90;;